sensor_id;sensor_type;location;lat;lon;timestamp;P1;P2;P0
79317;PMS7003;68779;50.036;19.964;2023-07-16T00:28:58;20;18;15
79317;PMS7003;68779;50.036;19.964;2023-07-16T00:59:16;20;20;16
79317;PMS7003;68779;50.036;19.964;2023-07-16T01:59:56;25;22;15
79317;PMS7003;68779;50.036;19.964;2023-07-16T02:30:14;21;20;15
79317;PMS7003;68779;50.036;19.964;2023-07-16T03:00:31;26;25;19
79317;PMS7003;68779;50.036;19.964;2023-07-16T04:01:09;27;25;16
79317;PMS7003;68779;50.036;19.964;2023-07-16T05:01:47;20;19;13
79317;PMS7003;68779;50.036;19.964;2023-07-16T06:02:34;16;16;13
79317;PMS7003;68779;50.036;19.964;2023-07-16T06:32:50;18;18;15
79317;PMS7003;68779;50.036;19.964;2023-07-16T07:03:08;17;15;13
79317;PMS7003;68779;50.036;19.964;2023-07-16T07:33:22;18;15;13
79317;PMS7003;68779;50.036;19.964;2023-07-16T08:03:39;15;14;12
79317;PMS7003;68779;50.036;19.964;2023-07-16T09:04:36;11;11;8
79317;PMS7003;68779;50.036;19.964;2023-07-16T09:34:52;17;15;11
79317;PMS7003;68779;50.036;19.964;2023-07-16T10:18:05;15;15;12
79317;PMS7003;68779;50.036;19.964;2023-07-16T10:48:24;11;11;9
79317;PMS7003;68779;50.036;19.964;2023-07-16T11:18:39;11;11;10
79317;PMS7003;68779;50.036;19.964;2023-07-16T11:48:59;13;13;11
79317;PMS7003;68779;50.036;19.964;2023-07-16T12:19:13;18;18;15
79317;PMS7003;68779;50.036;19.964;2023-07-16T12:49:27;17;17;12
79317;PMS7003;68779;50.036;19.964;2023-07-16T13:19:41;25;25;20
79317;PMS7003;68779;50.036;19.964;2023-07-16T13:49:56;23;23;17
79317;PMS7003;68779;50.036;19.964;2023-07-16T14:20:14;26;26;20
79317;PMS7003;68779;50.036;19.964;2023-07-16T14:50:33;35;33;24
79317;PMS7003;68779;50.036;19.964;2023-07-16T15:20:55;39;35;27
79317;PMS7003;68779;50.036;19.964;2023-07-16T15:51:12;35;31;23
79317;PMS7003;68779;50.036;19.964;2023-07-16T16:21:26;36;33;22
79317;PMS7003;68779;50.036;19.964;2023-07-16T16:51:43;40;35;26
79317;PMS7003;68779;50.036;19.964;2023-07-16T17:21:57;37;33;25
79317;PMS7003;68779;50.036;19.964;2023-07-16T18:22:43;46;39;25
79317;PMS7003;68779;50.036;19.964;2023-07-16T18:52:56;46;40;27
79317;PMS7003;68779;50.036;19.964;2023-07-16T19:23:12;42;37;25
79317;PMS7003;68779;50.036;19.964;2023-07-16T19:53:26;41;36;26
79317;PMS7003;68779;50.036;19.964;2023-07-16T20:23:43;37;32;22
79317;PMS7003;68779;50.036;19.964;2023-07-16T20:53:58;37;34;24
79317;PMS7003;68779;50.036;19.964;2023-07-16T21:24:17;35;32;23
79317;PMS7003;68779;50.036;19.964;2023-07-16T21:54:43;39;32;22
79317;PMS7003;68779;50.036;19.964;2023-07-16T22:25:02;29;28;21
79317;PMS7003;68779;50.036;19.964;2023-07-16T22:55:19;47;39;26
79317;PMS7003;68779;50.036;19.964;2023-07-16T23:25:32;48;40;27
79317;PMS7003;68779;50.036;19.964;2023-07-16T23:55:49;37;32;23
